Lakeside, California
Current Conditions -  °F | °C
As of 3:15 AM on Wednesday 26 Nov 2014 (Local Time) from KSEE Reporting Station
Clear Clear  
Wind Chill:   Ceiling: Unl
Heat Index:   Visibility: 10mi
Dew Point: -1°   Wind: 0mph
Humidity: 57%   Direction: NA
Pressure: 30.25"   Gusts: NA
Location:  32.85°N, 116.9°W
Report Text: KSEE 261115Z AUTO 00000KT 10SM CLR 07/M01 A3025 RMK AO2
Loading
Personal Weather Stations






























Interactive Weather Map New forecast layout! Learn more

10-Day Weather Forecast

Advertisements
Track Severe Weather on mobile